createdAt,value
2023-01-29T00:01:23.858Z,-0.09
2023-01-29T00:03:51.728Z,-0.08
2023-01-29T00:06:18.600Z,-0.10
2023-01-29T00:08:45.592Z,-0.14
2023-01-29T00:11:13.623Z,-0.18
2023-01-29T00:13:40.435Z,-0.25
2023-01-29T00:16:07.439Z,-0.31
2023-01-29T00:18:38.499Z,-0.30
2023-01-29T00:21:10.735Z,-0.27
2023-01-29T00:23:37.615Z,-0.25
2023-01-29T00:26:04.804Z,-0.25
2023-01-29T00:28:31.709Z,-0.25
2023-01-29T00:30:59.291Z,-0.24
2023-01-29T00:33:26.153Z,-0.28
2023-01-29T00:35:52.953Z,-0.33
2023-01-29T00:38:19.676Z,-0.38
2023-01-29T00:41:01.658Z,-0.41
2023-01-29T00:43:44.076Z,-0.45
2023-01-29T00:46:11.327Z,-0.46
2023-01-29T00:48:38.129Z,-0.48
2023-01-29T00:51:07.545Z,-0.49
2023-01-29T00:53:34.364Z,-0.50
2023-01-29T00:56:01.153Z,-0.52
2023-01-29T00:58:34.297Z,-0.54
2023-01-29T01:01:02.801Z,-0.58
2023-01-29T01:03:30.188Z,-0.63
2023-01-29T01:06:12.341Z,-0.69
2023-01-29T01:08:54.493Z,-0.71
2023-01-29T01:11:21.638Z,-0.72
2023-01-29T01:13:48.362Z,-0.71
2023-01-29T01:16:19.218Z,-0.72
2023-01-29T01:18:46.123Z,-0.71
2023-01-29T01:21:13.304Z,-0.73
2023-01-29T01:23:40.179Z,-0.75
2023-01-29T01:26:11.108Z,-0.75
2023-01-29T01:28:38.921Z,-0.75
2023-01-29T01:31:14.286Z,-0.76
2023-01-29T01:33:41.452Z,-0.77
2023-01-29T01:36:11.608Z,-0.74
2023-01-29T01:38:44.704Z,-0.69
2023-01-29T01:41:13.815Z,-0.68
2023-01-29T01:43:58.464Z,-0.70
2023-01-29T01:46:28.571Z,-0.74
2023-01-29T01:49:03.029Z,-0.72
2023-01-29T01:51:33.282Z,-0.72
2023-01-29T01:54:08.399Z,-0.72
2023-01-29T01:56:43.534Z,-0.71
2023-01-29T01:59:15.542Z,-0.70
2023-01-29T02:01:47.967Z,-0.69
2023-01-29T02:04:34.158Z,-0.65
2023-01-29T02:07:18.970Z,-0.61
2023-01-29T02:09:53.288Z,-0.59
2023-01-29T02:12:22.372Z,-0.62
2023-01-29T02:14:51.514Z,-0.66
2023-01-29T02:17:20.171Z,-0.72
2023-01-29T02:19:57.350Z,-0.79
2023-01-29T02:22:29.372Z,-0.86
2023-01-29T02:24:56.428Z,-0.88
2023-01-29T02:27:46.046Z,-0.92
2023-01-29T02:30:22.955Z,-0.94
2023-01-29T02:33:13.901Z,-0.98
2023-01-29T02:35:51.099Z,-0.98
2023-01-29T02:38:35.050Z,-1.05
2023-01-29T02:41:08.181Z,-1.13
2023-01-29T02:43:54.920Z,-1.20
2023-01-29T02:46:40.426Z,-1.25
2023-01-29T02:49:10.461Z,-1.24
2023-01-29T02:51:49.974Z,-1.28
2023-01-29T02:54:39.701Z,-1.32
2023-01-29T02:57:18.468Z,-1.33
2023-01-29T02:59:54.313Z,-1.34
2023-01-29T03:02:33.614Z,-1.34
2023-01-29T03:05:04.933Z,-1.39
2023-01-29T03:07:42.784Z,-1.44
2023-01-29T03:10:37.199Z,-1.46
2023-01-29T03:13:13.467Z,-1.48
2023-01-29T03:15:51.469Z,-1.47
2023-01-29T03:18:36.841Z,-1.42
2023-01-29T03:21:26.636Z,-1.37
2023-01-29T03:24:12.713Z,-1.33
2023-01-29T03:26:58.206Z,-1.32
2023-01-29T03:29:48.099Z,-1.34
2023-01-29T03:32:18.845Z,-1.39
2023-01-29T03:34:52.010Z,-1.41
2023-01-29T03:37:30.101Z,-1.41
2023-01-29T03:39:57.020Z,-1.41
2023-01-29T03:42:33.411Z,-1.43
2023-01-29T03:45:08.521Z,-1.44
2023-01-29T03:48:04.349Z,-1.47
2023-01-29T03:50:50.638Z,-1.49
2023-01-29T03:53:31.832Z,-1.50
2023-01-29T03:56:08.653Z,-1.53
2023-01-29T03:58:43.820Z,-1.54
2023-01-29T04:01:12.736Z,-1.60
2023-01-29T04:03:48.373Z,-1.70
2023-01-29T04:06:20.731Z,-1.78
2023-01-29T04:09:03.578Z,-1.86
2023-01-29T04:11:33.766Z,-1.89
2023-01-29T04:14:01.200Z,-1.94
2023-01-29T04:16:35.058Z,-1.96
2023-01-29T04:19:23.873Z,-1.97
2023-01-29T04:22:00.510Z,-1.96
2023-01-29T04:24:27.524Z,-1.90
2023-01-29T04:27:05.714Z,-1.87
2023-01-29T04:29:48.703Z,-1.86
2023-01-29T04:32:32.026Z,-1.85
2023-01-29T04:35:07.827Z,-1.90
2023-01-29T04:37:44.157Z,-1.92
2023-01-29T04:40:18.533Z,-1.95
2023-01-29T04:42:59.796Z,-2.03
2023-01-29T04:45:39.521Z,-2.08
2023-01-29T04:48:21.635Z,-2.11
2023-01-29T04:51:10.286Z,-2.17
2023-01-29T04:53:52.785Z,-2.21
2023-01-29T04:56:26.406Z,-2.26
2023-01-29T04:58:59.792Z,-2.32
2023-01-29T05:01:30.376Z,-2.35
2023-01-29T05:03:58.380Z,-2.36
2023-01-29T05:06:26.008Z,-2.35
2023-01-29T05:08:53.918Z,-2.35
2023-01-29T05:11:20.773Z,-2.34
2023-01-29T05:13:49.148Z,-2.35
2023-01-29T05:16:23.993Z,-2.34
2023-01-29T05:18:51.775Z,-2.36
2023-01-29T05:21:19.746Z,-2.38
2023-01-29T05:23:57.621Z,-2.37
2023-01-29T05:26:40.375Z,-2.38
2023-01-29T05:29:07.299Z,-2.39
2023-01-29T05:31:34.175Z,-2.40
2023-01-29T05:34:00.955Z,-2.40
2023-01-29T05:36:27.810Z,-2.42
2023-01-29T05:38:54.595Z,-2.46
2023-01-29T05:41:21.282Z,-2.49
2023-01-29T05:43:48.050Z,-2.50
2023-01-29T05:46:14.834Z,-2.49
2023-01-29T05:48:41.614Z,-2.49
2023-01-29T05:51:08.342Z,-2.49
2023-01-29T05:53:35.123Z,-2.50
2023-01-29T05:56:04.033Z,-2.56
2023-01-29T05:58:32.149Z,-2.60
2023-01-29T06:00:59.035Z,-2.62
2023-01-29T06:03:25.827Z,-2.63
2023-01-29T06:05:52.568Z,-2.62
2023-01-29T06:08:19.410Z,-2.65
2023-01-29T06:10:46.144Z,-2.69
2023-01-29T06:13:12.954Z,-2.73
2023-01-29T06:15:40.977Z,-2.76
2023-01-29T06:18:07.813Z,-2.81
2023-01-29T06:20:34.533Z,-2.84
2023-01-29T06:23:01.292Z,-2.82
2023-01-29T06:25:28.382Z,-2.82
2023-01-29T06:27:56.599Z,-2.81
2023-01-29T06:30:24.533Z,-2.84
2023-01-29T06:32:51.337Z,-2.83
2023-01-29T06:35:18.258Z,-2.80
2023-01-29T06:37:45.003Z,-2.78
2023-01-29T06:40:12.328Z,-2.77
2023-01-29T06:42:39.031Z,-2.81
2023-01-29T06:45:09.484Z,-2.85
2023-01-29T06:47:36.274Z,-2.85
2023-01-29T06:50:03.799Z,-2.85
2023-01-29T06:52:30.628Z,-2.82
2023-01-29T06:54:57.440Z,-2.77
2023-01-29T06:57:24.320Z,-2.75
2023-01-29T06:59:51.071Z,-2.73
2023-01-29T07:02:18.151Z,-2.72
2023-01-29T07:04:44.905Z,-2.67
2023-01-29T07:07:13.387Z,-2.63
2023-01-29T07:09:41.525Z,-2.58
2023-01-29T07:12:09.521Z,-2.55
2023-01-29T07:14:36.342Z,-2.53
2023-01-29T07:17:03.479Z,-2.53
2023-01-29T07:19:30.183Z,-2.51
2023-01-29T07:21:56.972Z,-2.50
2023-01-29T07:24:24.565Z,-2.47
2023-01-29T07:26:51.631Z,-2.41
2023-01-29T07:29:18.504Z,-2.34
2023-01-29T07:31:45.371Z,-2.24
2023-01-29T07:34:12.130Z,-2.14
2023-01-29T07:36:38.843Z,-2.07
2023-01-29T07:39:05.731Z,-2.02
2023-01-29T07:41:32.508Z,-2.00
2023-01-29T07:43:59.813Z,-1.94
2023-01-29T07:46:26.574Z,-1.93
2023-01-29T07:48:53.309Z,-1.89
2023-01-29T07:51:21.462Z,-1.85
2023-01-29T07:53:48.228Z,-1.79
2023-01-29T07:56:15.161Z,-1.76
2023-01-29T07:58:42.009Z,-1.77
2023-01-29T08:01:09.019Z,-1.78
2023-01-29T08:03:36.201Z,-1.79
2023-01-29T08:06:04.381Z,-1.79
2023-01-29T08:08:31.268Z,-1.78
2023-01-29T08:11:01.620Z,-1.79
2023-01-29T08:13:28.488Z,-1.80
2023-01-29T08:15:59.861Z,-1.81
2023-01-29T08:18:26.628Z,-1.84
2023-01-29T08:20:53.378Z,-1.84
2023-01-29T08:23:20.333Z,-1.86
2023-01-29T08:25:47.202Z,-1.84
2023-01-29T08:28:13.994Z,-1.85
2023-01-29T08:30:40.923Z,-1.83
2023-01-29T08:33:07.714Z,-1.79
2023-01-29T08:35:34.451Z,-1.71
2023-01-29T08:38:03.453Z,-1.63
2023-01-29T08:40:33.403Z,-1.58
2023-01-29T08:43:04.116Z,-1.52
2023-01-29T08:45:35.030Z,-1.48
2023-01-29T08:48:01.968Z,-1.44
2023-01-29T08:50:30.623Z,-1.41
2023-01-29T08:52:59.398Z,-1.40
2023-01-29T08:55:27.101Z,-1.36
2023-01-29T08:57:54.225Z,-1.34
2023-01-29T09:00:21.346Z,-1.31
2023-01-29T09:02:48.342Z,-1.29
2023-01-29T09:05:15.628Z,-1.25
2023-01-29T09:07:42.540Z,-1.28
2023-01-29T09:10:12.045Z,-1.33
2023-01-29T09:12:38.989Z,-1.36
2023-01-29T09:15:06.341Z,-1.42
2023-01-29T09:17:33.160Z,-1.45
2023-01-29T09:19:59.964Z,-1.47
2023-01-29T09:22:26.984Z,-1.47
2023-01-29T09:24:54.971Z,-1.45
2023-01-29T09:27:21.890Z,-1.45
2023-01-29T09:29:48.762Z,-1.43
2023-01-29T09:32:19.586Z,-1.44
2023-01-29T09:34:50.101Z,-1.45
2023-01-29T09:37:18.354Z,-1.46
2023-01-29T09:39:45.701Z,-1.42
2023-01-29T09:42:27.730Z,-1.28
2023-01-29T09:45:02.261Z,-1.11
2023-01-29T09:47:32.192Z,-0.94
2023-01-29T09:50:01.186Z,-0.80
2023-01-29T09:52:32.726Z,-0.68
2023-01-29T09:55:00.580Z,-0.58
2023-01-29T09:57:39.249Z,-0.53
2023-01-29T10:00:07.380Z,-0.55
2023-01-29T10:02:44.072Z,-0.62
2023-01-29T10:05:32.191Z,-0.71
2023-01-29T10:08:17.351Z,-0.79
2023-01-29T10:10:50.469Z,-0.84
2023-01-29T10:13:19.305Z,-0.79
2023-01-29T10:15:51.052Z,-0.75
2023-01-29T10:18:44.189Z,-0.70
2023-01-29T10:21:27.450Z,-0.68
2023-01-29T10:24:03.197Z,-0.75
2023-01-29T10:26:33.410Z,-0.84
2023-01-29T10:29:02.796Z,-0.95
2023-01-29T10:31:34.387Z,-1.03
2023-01-29T10:34:07.101Z,-1.04
2023-01-29T10:36:46.820Z,-1.04
2023-01-29T10:39:18.570Z,-1.04
2023-01-29T10:42:16.270Z,-0.97
2023-01-29T10:44:52.236Z,-0.97
2023-01-29T10:47:42.007Z,-0.98
2023-01-29T10:50:15.355Z,-0.95
2023-01-29T10:52:50.075Z,-0.93
2023-01-29T10:55:32.583Z,-0.90
2023-01-29T10:58:06.092Z,-0.78
2023-01-29T11:00:38.214Z,-0.65
2023-01-29T11:03:28.462Z,-0.63
2023-01-29T11:06:26.774Z,-0.63
2023-01-29T11:09:10.052Z,-0.60
2023-01-29T11:11:54.768Z,-0.64
2023-01-29T11:14:26.843Z,-0.60
2023-01-29T11:16:53.978Z,-0.51
2023-01-29T11:19:38.418Z,-0.49
2023-01-29T11:22:05.058Z,-0.43
2023-01-29T11:24:31.777Z,-0.35
2023-01-29T11:27:00.061Z,-0.22
2023-01-29T11:29:39.079Z,-0.10
2023-01-29T11:32:12.062Z,0.01
2023-01-29T11:34:59.120Z,0.07
2023-01-29T11:37:32.695Z,0.02
2023-01-29T11:39:59.446Z,0.08
2023-01-29T11:42:31.597Z,0.47
2023-01-29T11:44:58.379Z,0.81
2023-01-29T11:47:28.835Z,0.86
2023-01-29T11:50:13.784Z,0.98
2023-01-29T11:52:43.090Z,1.13
2023-01-29T11:55:16.237Z,1.32
2023-01-29T11:57:46.667Z,1.41
2023-01-29T12:00:24.831Z,1.59
2023-01-29T12:02:58.130Z,1.61
2023-01-29T12:05:26.750Z,1.50
2023-01-29T12:07:56.778Z,1.29
2023-01-29T12:10:40.498Z,1.00
2023-01-29T12:13:10.821Z,0.75
2023-01-29T12:15:38.913Z,0.66
2023-01-29T12:18:28.073Z,0.54
2023-01-29T12:21:00.664Z,0.47
2023-01-29T12:23:46.040Z,0.47
2023-01-29T12:26:25.710Z,0.49
2023-01-29T12:29:08.308Z,0.49
2023-01-29T12:31:55.371Z,0.43
2023-01-29T12:34:26.768Z,0.35
2023-01-29T12:37:24.751Z,0.32
2023-01-29T12:39:52.381Z,0.28
2023-01-29T12:42:22.992Z,0.18
2023-01-29T12:44:55.204Z,0.09
2023-01-29T12:47:31.320Z,0.05
2023-01-29T12:50:05.616Z,0.06
2023-01-29T12:52:40.955Z,0.11
2023-01-29T12:55:26.222Z,0.12
2023-01-29T12:57:58.946Z,0.12
2023-01-29T13:00:32.202Z,0.09
2023-01-29T13:03:08.102Z,0.04
2023-01-29T13:05:55.917Z,0.08
2023-01-29T13:08:44.483Z,0.30
2023-01-29T13:11:18.386Z,0.63
2023-01-29T13:13:56.748Z,0.89
2023-01-29T13:16:33.843Z,1.06
2023-01-29T13:19:06.237Z,1.13
2023-01-29T13:21:43.959Z,1.18
2023-01-29T13:24:16.262Z,1.36
2023-01-29T13:26:47.945Z,1.70
2023-01-29T13:29:31.057Z,1.90
2023-01-29T13:32:00.961Z,1.95
2023-01-29T13:34:42.730Z,1.91
2023-01-29T13:37:17.909Z,1.72
2023-01-29T13:39:51.577Z,1.50
2023-01-29T13:42:22.152Z,1.34
2023-01-29T13:44:51.654Z,1.23
2023-01-29T13:47:23.852Z,1.20
2023-01-29T13:49:59.437Z,1.14
2023-01-29T13:52:58.294Z,1.05
2023-01-29T13:55:32.005Z,0.94
2023-01-29T13:58:01.008Z,0.88
2023-01-29T14:00:35.341Z,0.80
2023-01-29T14:03:04.477Z,0.67
2023-01-29T14:05:31.273Z,0.51
2023-01-29T14:08:03.617Z,0.38
2023-01-29T14:10:32.963Z,0.27
2023-01-29T14:13:19.298Z,0.20
2023-01-29T14:16:13.674Z,0.15
2023-01-29T14:18:48.918Z,0.14
2023-01-29T14:21:16.734Z,0.15
2023-01-29T14:23:48.175Z,0.06
2023-01-29T14:26:30.229Z,0.02
2023-01-29T14:29:18.734Z,-0.07
2023-01-29T14:31:53.905Z,-0.12
2023-01-29T14:34:41.988Z,-0.17
2023-01-29T14:37:16.117Z,-0.23
2023-01-29T14:39:51.924Z,-0.29
2023-01-29T14:42:27.866Z,-0.38
2023-01-29T14:44:54.743Z,-0.46
2023-01-29T14:47:43.598Z,-0.54
2023-01-29T14:50:29.097Z,-0.60
2023-01-29T14:53:05.319Z,-0.63
2023-01-29T14:55:32.022Z,-0.70
2023-01-29T14:57:59.617Z,-0.77
2023-01-29T15:00:31.578Z,-0.82
2023-01-29T15:03:01.916Z,-0.88
2023-01-29T15:05:33.016Z,-0.93
2023-01-29T15:08:08.474Z,-0.98
2023-01-29T15:10:44.909Z,-1.03
2023-01-29T15:13:28.995Z,-1.05
2023-01-29T15:16:05.130Z,-1.06
2023-01-29T15:18:39.893Z,-1.06
2023-01-29T15:21:33.890Z,-1.09
2023-01-29T15:24:06.531Z,-1.15
2023-01-29T15:26:35.952Z,-1.21
2023-01-29T15:29:05.934Z,-1.25
2023-01-29T15:31:34.734Z,-1.29
2023-01-29T15:34:07.281Z,-1.35
2023-01-29T15:36:34.390Z,-1.40
2023-01-29T15:39:19.019Z,-1.45
2023-01-29T15:41:46.255Z,-1.50
2023-01-29T15:44:16.829Z,-1.54
2023-01-29T15:46:48.213Z,-1.59
2023-01-29T15:49:31.106Z,-1.65
2023-01-29T15:52:00.863Z,-1.69
2023-01-29T15:54:31.629Z,-1.69
2023-01-29T15:56:59.775Z,-1.66
2023-01-29T15:59:31.276Z,-1.65
2023-01-29T16:01:58.679Z,-1.63
2023-01-29T16:04:29.128Z,-1.61
2023-01-29T16:06:57.598Z,-1.61
2023-01-29T16:09:26.770Z,-1.61
2023-01-29T16:11:57.586Z,-1.62
2023-01-29T16:14:26.041Z,-1.63
2023-01-29T16:16:53.878Z,-1.63
2023-01-29T16:19:21.327Z,-1.64
2023-01-29T16:21:56.441Z,-1.63
2023-01-29T16:24:25.037Z,-1.63
2023-01-29T16:26:58.489Z,-1.66
2023-01-29T16:29:31.519Z,-1.66
2023-01-29T16:32:02.307Z,-1.64
2023-01-29T16:34:31.601Z,-1.61
2023-01-29T16:37:01.860Z,-1.55
2023-01-29T16:39:33.904Z,-1.52
2023-01-29T16:42:19.964Z,-1.51
2023-01-29T16:44:51.276Z,-1.54
2023-01-29T16:47:35.052Z,-1.57
2023-01-29T16:50:12.623Z,-1.62
2023-01-29T16:52:39.434Z,-1.65
2023-01-29T16:55:13.500Z,-1.67
2023-01-29T16:57:40.539Z,-1.70
2023-01-29T17:00:19.080Z,-1.72
2023-01-29T17:02:46.021Z,-1.74
2023-01-29T17:05:26.441Z,-1.73
2023-01-29T17:07:57.636Z,-1.69
2023-01-29T17:10:26.560Z,-1.66
2023-01-29T17:12:59.142Z,-1.63
2023-01-29T17:15:43.237Z,-1.62
2023-01-29T17:18:20.511Z,-1.61
2023-01-29T17:20:48.508Z,-1.61
2023-01-29T17:23:15.375Z,-1.61
2023-01-29T17:25:42.720Z,-1.62
2023-01-29T17:28:13.588Z,-1.63
2023-01-29T17:30:40.461Z,-1.66
2023-01-29T17:33:16.856Z,-1.67
2023-01-29T17:35:45.296Z,-1.66
2023-01-29T17:38:24.268Z,-1.64
2023-01-29T17:41:09.306Z,-1.60
2023-01-29T17:43:36.260Z,-1.59
2023-01-29T17:46:03.290Z,-1.58
2023-01-29T17:48:31.165Z,-1.58
2023-01-29T17:51:03.083Z,-1.60
2023-01-29T17:53:44.251Z,-1.62
2023-01-29T17:56:17.159Z,-1.66
2023-01-29T17:58:44.716Z,-1.69
2023-01-29T18:01:12.262Z,-1.74
2023-01-29T18:03:39.036Z,-1.74
2023-01-29T18:06:09.160Z,-1.75
2023-01-29T18:08:38.275Z,-1.73
2023-01-29T18:11:05.804Z,-1.71
2023-01-29T18:13:33.070Z,-1.70
2023-01-29T18:16:00.123Z,-1.68
2023-01-29T18:18:27.061Z,-1.69
2023-01-29T18:20:53.906Z,-1.70
2023-01-29T18:23:20.627Z,-1.70
2023-01-29T18:25:47.432Z,-1.72
2023-01-29T18:28:17.364Z,-1.74
2023-01-29T18:30:47.404Z,-1.77
2023-01-29T18:33:16.462Z,-1.78
2023-01-29T18:35:45.764Z,-1.78
2023-01-29T18:38:12.776Z,-1.77
2023-01-29T18:41:03.339Z,-1.76
2023-01-29T18:43:30.124Z,-1.73
2023-01-29T18:45:59.915Z,-1.73
2023-01-29T18:48:26.996Z,-1.73
2023-01-29T18:50:54.033Z,-1.76
2023-01-29T18:53:20.982Z,-1.78
2023-01-29T18:55:57.998Z,-1.80
2023-01-29T18:58:27.798Z,-1.84
2023-01-29T19:01:09.762Z,-1.86
2023-01-29T19:03:37.443Z,-1.87
2023-01-29T19:06:06.509Z,-1.87
2023-01-29T19:08:34.199Z,-1.85
2023-01-29T19:11:04.098Z,-1.84
2023-01-29T19:13:32.338Z,-1.85
2023-01-29T19:15:59.469Z,-1.88
2023-01-29T19:18:27.826Z,-1.92
2023-01-29T19:20:55.770Z,-1.96
2023-01-29T19:23:23.346Z,-2.00
2023-01-29T19:25:50.412Z,-2.01
2023-01-29T19:28:17.158Z,-2.00
2023-01-29T19:30:44.164Z,-1.97
2023-01-29T19:33:11.266Z,-1.93
2023-01-29T19:35:38.771Z,-1.91
2023-01-29T19:38:05.824Z,-1.90
2023-01-29T19:40:32.962Z,-1.90
2023-01-29T19:42:59.782Z,-1.92
2023-01-29T19:45:49.706Z,-1.94
2023-01-29T19:48:14.912Z,-1.96
2023-01-29T19:50:42.580Z,-1.98
2023-01-29T19:53:09.868Z,-2.01
2023-01-29T19:55:36.885Z,-2.01
2023-01-29T19:58:05.053Z,-1.98
2023-01-29T20:00:32.094Z,-1.95
2023-01-29T20:02:59.087Z,-1.92
2023-01-29T20:05:27.430Z,-1.92
2023-01-29T20:07:54.169Z,-1.92
2023-01-29T20:10:21.268Z,-1.92
2023-01-29T20:12:49.069Z,-1.95
2023-01-29T20:15:15.956Z,-1.98
2023-01-29T20:17:45.685Z,-2.00
2023-01-29T20:20:12.938Z,-1.97
2023-01-29T20:22:39.777Z,-1.96
2023-01-29T20:25:06.978Z,-1.97
2023-01-29T20:27:33.823Z,-1.97
2023-01-29T20:30:00.684Z,-1.99
2023-01-29T20:32:27.619Z,-2.01
2023-01-29T20:34:54.591Z,-2.03
2023-01-29T20:37:22.528Z,-2.04
2023-01-29T20:39:49.310Z,-2.04
2023-01-29T20:42:16.241Z,-2.01
2023-01-29T20:44:43.331Z,-1.98
2023-01-29T20:47:10.345Z,-1.96
2023-01-29T20:49:37.262Z,-1.93
2023-01-29T20:52:04.033Z,-1.91
2023-01-29T20:54:33.291Z,-1.90
2023-01-29T20:57:00.531Z,-1.91
2023-01-29T20:59:29.058Z,-1.92
2023-01-29T21:01:56.217Z,-1.91
2023-01-29T21:04:23.247Z,-1.88
2023-01-29T21:06:50.027Z,-1.85
2023-01-29T21:09:16.984Z,-1.83
2023-01-29T21:11:45.203Z,-1.82
2023-01-29T21:14:12.249Z,-1.81
2023-01-29T21:16:39.301Z,-1.83
2023-01-29T21:19:06.592Z,-1.85
2023-01-29T21:21:33.499Z,-1.88
2023-01-29T21:24:00.489Z,-1.92
2023-01-29T21:26:27.508Z,-2.00
2023-01-29T21:28:54.262Z,-2.02
2023-01-29T21:31:21.925Z,-2.04
2023-01-29T21:33:49.739Z,-2.05
2023-01-29T21:36:16.825Z,-2.06
2023-01-29T21:38:43.686Z,-2.06
2023-01-29T21:41:10.593Z,-2.07
2023-01-29T21:43:39.010Z,-2.10
2023-01-29T21:46:12.064Z,-2.13
2023-01-29T21:48:40.274Z,-2.18
2023-01-29T21:51:07.579Z,-2.23
2023-01-29T21:53:34.977Z,-2.29
2023-01-29T21:56:03.275Z,-2.31
2023-01-29T21:58:30.155Z,-2.30
2023-01-29T22:00:57.493Z,-2.29
2023-01-29T22:03:47.020Z,-2.27
2023-01-29T22:06:14.304Z,-2.26
2023-01-29T22:08:41.052Z,-2.27
2023-01-29T22:11:08.208Z,-2.31
2023-01-29T22:13:35.228Z,-2.34
2023-01-29T22:16:02.141Z,-2.39
2023-01-29T22:18:28.913Z,-2.44
2023-01-29T22:20:57.596Z,-2.51
2023-01-29T22:23:25.061Z,-2.58
2023-01-29T22:25:51.816Z,-2.61
2023-01-29T22:28:18.762Z,-2.62
2023-01-29T22:30:45.598Z,-2.61
2023-01-29T22:33:12.887Z,-2.58
2023-01-29T22:35:39.772Z,-2.56
2023-01-29T22:38:06.665Z,-2.57
2023-01-29T22:40:33.431Z,-2.56
2023-01-29T22:43:00.301Z,-2.57
2023-01-29T22:45:27.367Z,-2.55
2023-01-29T22:47:54.198Z,-2.56
2023-01-29T22:50:21.127Z,-2.55
2023-01-29T22:52:54.110Z,-2.53
2023-01-29T22:55:21.318Z,-2.48
2023-01-29T22:57:49.954Z,-2.43
2023-01-29T23:00:17.767Z,-2.39
2023-01-29T23:02:47.441Z,-2.35
2023-01-29T23:05:14.408Z,-2.32
2023-01-29T23:07:41.467Z,-2.30
2023-01-29T23:10:10.164Z,-2.29
2023-01-29T23:12:37.575Z,-2.28
2023-01-29T23:15:04.992Z,-2.28
2023-01-29T23:17:32.057Z,-2.28
2023-01-29T23:19:58.845Z,-2.29
2023-01-29T23:22:25.558Z,-2.28
2023-01-29T23:24:52.904Z,-2.26
2023-01-29T23:27:20.092Z,-2.23
2023-01-29T23:29:48.582Z,-2.20
2023-01-29T23:32:18.616Z,-2.17
2023-01-29T23:34:45.435Z,-2.16
2023-01-29T23:37:12.406Z,-2.16
2023-01-29T23:39:39.194Z,-2.16
2023-01-29T23:42:05.973Z,-2.17
2023-01-29T23:44:32.736Z,-2.17
2023-01-29T23:46:59.836Z,-2.20
2023-01-29T23:49:26.610Z,-2.20
2023-01-29T23:51:53.585Z,-2.17
2023-01-29T23:54:20.406Z,-2.14
2023-01-29T23:56:47.314Z,-2.13
2023-01-29T23:59:15.276Z,-2.12
